Time;durP1;ratioP1;P1;durP2;ratioP2;P2;SDS_P1;SDS_P2;PMS_P1;PMS_P2;Temp;Humidity;BMP_temperature;BMP_pressure;BME280_temperature;BME280_humidity;BME280_pressure;Samples;Min_cycle;Max_cycle;Signal;HPM_P1;HPM_P2
2023/03/27 00:02:23;;;;;;;5.43;4.32;;;;;;;9.53;100.00;99259.00;5034504;28;20065;-76
2023/03/27 00:04:53;;;;;;;5.95;4.57;;;;;;;9.26;100.00;99277.03;5034421;28;20053;-77
2023/03/27 00:07:21;;;;;;;7.30;4.82;;;;;;;9.31;100.00;99269.84;5034424;28;20052;-77
2023/03/27 00:09:49;;;;;;;6.70;4.95;;;;;;;9.36;100.00;99261.56;5034403;28;20046;-77
2023/03/27 00:12:17;;;;;;;5.93;4.45;;;;;;;9.45;100.00;99267.09;5033106;28;20049;-77
2023/03/27 00:14:46;;;;;;;7.68;5.38;;;;;;;9.46;100.00;99263.25;5034123;28;20053;-77
2023/03/27 00:17:14;;;;;;;6.30;4.88;;;;;;;9.51;100.00;99276.81;5034228;28;20396;-76
2023/03/27 00:19:42;;;;;;;10.45;6.60;;;;;;;9.28;100.00;99269.34;5034009;28;20057;-77
2023/03/27 00:22:10;;;;;;;13.98;9.95;;;;;;;9.16;100.00;99262.75;5034158;28;20044;-76
2023/03/27 00:24:38;;;;;;;17.70;11.00;;;;;;;9.21;100.00;99279.03;5034048;28;20049;-77
2023/03/27 00:27:07;;;;;;;17.90;11.52;;;;;;;9.35;100.00;99279.88;5033975;28;20509;-77
2023/03/27 00:29:36;;;;;;;19.92;13.13;;;;;;;9.37;100.00;99280.38;5065985;28;20401;-76
2023/03/27 00:32:05;;;;;;;21.10;14.40;;;;;;;9.40;100.00;99277.00;5032757;28;20037;-77
2023/03/27 00:34:32;;;;;;;24.08;14.88;;;;;;;9.48;100.00;99288.34;5033774;28;20053;-77
2023/03/27 00:37:03;;;;;;;23.10;15.43;;;;;;;9.47;100.00;99275.78;5032535;28;20499;-77
2023/03/27 00:39:31;;;;;;;23.02;15.43;;;;;;;9.44;100.00;99274.50;5033458;28;20056;-77
2023/03/27 00:41:59;;;;;;;24.95;15.48;;;;;;;9.44;100.00;99277.25;5032543;28;20041;-77
2023/03/27 00:44:33;;;;;;;24.58;16.63;;;;;;;9.40;100.00;99279.75;5032478;28;20053;-77
2023/03/27 00:47:03;;;;;;;20.70;14.32;;;;;;;9.26;100.00;99282.50;5049004;28;20059;-77
2023/03/27 00:49:35;;;;;;;24.48;15.98;;;;;;;9.28;100.00;99299.38;5033531;28;20388;-77
2023/03/27 00:52:05;;;;;;;23.33;15.55;;;;;;;9.35;100.00;99307.19;5032424;28;20392;-77
2023/03/27 00:54:37;;;;;;;27.30;16.27;;;;;;;9.38;100.00;99306.56;5065414;28;20492;-77
2023/03/27 00:57:11;;;;;;;22.88;16.00;;;;;;;9.31;100.00;99303.41;5033476;28;20068;-76
2023/03/27 00:59:42;;;;;;;25.13;14.98;;;;;;;9.28;100.00;99290.38;5031211;28;20060;-77
2023/03/27 01:02:12;;;;;;;24.17;15.13;;;;;;;9.32;100.00;99279.66;5032081;28;20045;-77
2023/03/27 01:04:41;;;;;;;23.05;13.90;;;;;;;9.26;100.00;99277.03;5032303;28;20053;-77
2023/03/27 01:07:10;;;;;;;22.00;13.90;;;;;;;9.08;100.00;99284.19;5065136;28;20396;-76
2023/03/27 01:09:39;;;;;;;22.38;14.50;;;;;;;9.24;100.00;99292.09;5048742;28;20053;-77
2023/03/27 01:12:44;;;;;;;22.13;14.93;;;;;;;9.31;100.00;99295.22;5033040;28;20042;-77
2023/03/27 01:15:33;;;;;;;23.08;15.15;;;;;;;9.34;100.00;99300.06;5031780;28;20056;-77
2023/03/27 01:18:28;;;;;;;21.65;14.43;;;;;;;9.00;100.00;99293.88;5031746;28;20392;-77
2023/03/27 01:21:24;;;;;;;22.05;15.25;;;;;;;8.78;100.00;99300.00;5032933;28;20044;-77
2023/03/27 01:24:23;;;;;;;23.20;14.38;;;;;;;8.81;100.00;99310.31;5032911;28;20053;-77
2023/03/27 01:27:01;;;;;;;21.48;14.68;;;;;;;8.84;100.00;99298.00;5031619;28;20045;-77
2023/03/27 01:29:41;;;;;;;23.65;15.82;;;;;;;8.62;100.00;99293.19;5031626;28;20046;-77
2023/03/27 01:32:31;;;;;;;24.63;15.75;;;;;;;8.74;100.00;99288.06;5031696;28;20511;-77
2023/03/27 01:35:22;;;;;;;26.20;15.77;;;;;;;9.03;100.00;99300.66;5064850;28;20064;-76
2023/03/27 01:38:23;;;;;;;26.40;16.38;;;;;;;9.19;100.00;99306.63;5031529;28;20523;-77
2023/03/27 01:41:07;;;;;;;24.50;15.10;;;;;;;9.17;100.00;99319.78;5031455;28;20041;-77
2023/03/27 01:43:43;;;;;;;23.70;16.48;;;;;;;9.11;100.00;99321.00;5031209;28;20050;-77
2023/03/27 01:46:23;;;;;;;22.77;14.07;;;;;;;9.11;100.00;99332.72;5031339;28;20045;-77
2023/03/27 01:49:01;;;;;;;22.02;14.65;;;;;;;8.96;100.00;99333.81;5031257;28;20488;-77
2023/03/27 01:51:35;;;;;;;23.92;15.57;;;;;;;9.06;100.00;99338.28;5032538;28;20053;-77
2023/03/27 01:54:14;;;;;;;25.35;15.15;;;;;;;9.08;100.00;99336.03;5031305;28;20052;-77
2023/03/27 01:57:00;;;;;;;24.33;15.18;;;;;;;9.07;100.00;99334.44;5064473;28;20049;-76
2023/03/27 01:59:33;;;;;;;25.35;15.80;;;;;;;9.05;100.00;99339.34;5064095;28;20060;-77
2023/03/27 02:02:10;;;;;;;24.92;16.40;;;;;;;9.01;100.00;99330.19;5031166;28;20057;-77
2023/03/27 02:05:02;;;;;;;25.83;15.40;;;;;;;9.01;100.00;99330.97;5032331;28;20041;-77
2023/03/27 02:07:37;;;;;;;27.45;16.38;;;;;;;8.80;100.00;99330.50;5031117;28;20037;-76
2023/03/27 02:10:10;;;;;;;30.10;16.83;;;;;;;8.69;100.00;99326.34;5064103;28;20052;-77
2023/03/27 02:12:48;;;;;;;25.63;16.35;;;;;;;8.91;100.00;99335.81;5031083;28;20045;-77
2023/03/27 02:15:23;;;;;;;28.10;15.95;;;;;;;9.08;100.00;99341.50;5032015;28;20058;-77
2023/03/27 02:18:03;;;;;;;25.50;16.45;;;;;;;8.89;100.00;99327.13;5030973;28;20384;-77
2023/03/27 02:20:33;;;;;;;28.55;17.35;;;;;;;9.00;100.00;99344.94;5064118;28;20500;-77
2023/03/27 02:23:02;;;;;;;25.35;16.17;;;;;;;9.07;100.00;99349.97;5032108;28;20045;-77
2023/03/27 02:25:33;;;;;;;27.05;15.55;;;;;;;9.09;100.00;99364.94;5030923;28;20045;-77
2023/03/27 02:28:41;;;;;;;25.70;16.63;;;;;;;8.94;100.00;99355.09;5030861;28;20049;-77
2023/03/27 02:31:31;;;;;;;25.63;16.10;;;;;;;8.93;100.00;99360.84;5032114;28;20056;-77
2023/03/27 02:34:48;;;;;;;25.25;17.10;;;;;;;8.79;100.00;99350.72;5031974;28;20054;-77
2023/03/27 02:37:30;;;;;;;25.77;16.95;;;;;;;8.73;100.00;99350.00;5030762;28;20407;-77
2023/03/27 02:40:25;;;;;;;30.83;17.08;;;;;;;8.66;100.00;99352.28;5031825;28;20045;-77
2023/03/27 02:43:07;;;;;;;24.85;17.10;;;;;;;8.55;100.00;99361.75;5030729;28;20046;-77
2023/03/27 02:46:09;;;;;;;26.42;17.80;;;;;;;8.39;100.00;99358.41;5030669;28;20053;-77
2023/03/27 02:49:01;;;;;;;28.27;18.65;;;;;;;8.20;100.00;99359.22;5030573;28;20041;-77
2023/03/27 02:51:35;;;;;;;29.33;18.05;;;;;;;8.18;100.00;99353.25;5030640;28;20052;-77
2023/03/27 02:54:15;;;;;;;30.58;18.70;;;;;;;8.22;100.00;99348.84;5031934;28;20412;-77
2023/03/27 02:56:51;;;;;;;29.67;18.67;;;;;;;8.27;100.00;99364.31;5030642;28;20058;-77
2023/03/27 02:59:34;;;;;;;28.40;18.45;;;;;;;8.41;100.00;99378.03;5030451;28;20479;-77
2023/03/27 03:02:06;;;;;;;32.30;19.20;;;;;;;8.62;100.00;99388.63;5030587;28;20435;-77
2023/03/27 03:04:58;;;;;;;29.95;19.52;;;;;;;8.65;100.00;99386.13;5030747;28;20056;-78
2023/03/27 03:07:37;;;;;;;26.88;17.00;;;;;;;8.59;100.00;99390.03;5030503;28;20045;-77
2023/03/27 03:10:11;;;;;;;26.15;17.63;;;;;;;8.59;100.00;99390.84;5031590;28;20061;-77
2023/03/27 03:12:38;;;;;;;;;;;;;;;8.63;100.00;99399.25;5030877;28;20049;-77
2023/03/27 03:15:07;;;;;;;24.83;14.55;;;;;;;8.55;100.00;99394.47;5031486;28;19924;-77
2023/03/27 03:17:36;;;;;;;26.35;15.23;;;;;;;8.22;100.00;99391.63;5030400;28;20782;-77
2023/03/27 03:20:06;;;;;;;21.98;13.90;;;;;;;8.19;100.00;99388.41;5030317;28;20064;-77
2023/03/27 03:22:36;;;;;;;22.70;14.15;;;;;;;8.13;100.00;99383.31;5032869;28;20412;-77
2023/03/27 03:25:09;;;;;;;23.75;14.60;;;;;;;8.11;100.00;99396.41;5033933;28;20050;-77
2023/03/27 03:27:37;;;;;;;23.33;14.73;;;;;;;7.87;100.00;99413.59;5035025;28;20048;-77
2023/03/27 03:30:09;;;;;;;23.08;14.88;;;;;;;7.88;100.00;99423.38;5033876;28;20499;-77
2023/03/27 03:32:58;;;;;;;28.63;16.17;;;;;;;7.85;100.00;99424.78;5033748;28;20048;-77
2023/03/27 03:35:27;;;;;;;27.92;17.33;;;;;;;7.59;100.00;99410.63;5033597;28;20038;-77
2023/03/27 03:37:58;;;;;;;32.90;16.48;;;;;;;7.69;100.00;99413.25;5033567;28;20144;-77
2023/03/27 03:40:28;;;;;;;33.67;18.10;;;;;;;7.90;100.00;99413.00;5033282;28;20400;-78
2023/03/27 03:42:57;;;;;;;30.80;16.92;;;;;;;7.92;100.00;99419.00;5033407;28;20057;-78
2023/03/27 03:45:28;;;;;;;29.40;18.05;;;;;;;7.63;100.00;99414.41;5033487;28;20049;-77
2023/03/27 03:47:56;;;;;;;29.95;16.90;;;;;;;7.83;100.00;99428.88;5033339;28;20381;-77
2023/03/27 03:50:24;;;;;;;32.15;16.55;;;;;;;7.93;100.00;99437.75;5034541;28;20037;-77
2023/03/27 03:52:52;;;;;;;30.35;18.30;;;;;;;8.20;100.00;99451.88;5033195;28;20041;-78
2023/03/27 03:55:20;;;;;;;30.75;18.13;;;;;;;8.19;100.00;99445.63;5034934;28;20053;-77
2023/03/27 03:57:49;;;;;;;29.95;17.17;;;;;;;8.04;100.00;99462.16;5033140;28;20046;-77
2023/03/27 04:00:24;;;;;;;28.05;15.20;;;;;;;8.04;100.00;99460.25;5066193;28;20061;-77
2023/03/27 04:02:55;;;;;;;26.98;15.88;;;;;;;8.10;100.00;99454.72;5017160;28;20068;-78
2023/03/27 04:05:24;;;;;;;38.70;17.58;;;;;;;8.11;100.00;99459.09;5033128;28;20060;-77
2023/03/27 04:07:58;;;;;;;30.02;16.45;;;;;;;8.22;100.00;99457.88;5049662;28;20489;-77
2023/03/27 04:10:49;;;;;;;33.17;19.65;;;;;;;8.39;100.00;99456.53;5032927;28;20061;-78
2023/03/27 04:13:41;;;;;;;40.38;19.90;;;;;;;8.28;100.00;99455.88;5065954;28;20049;-77
2023/03/27 04:16:30;;;;;;;38.92;19.90;;;;;;;8.29;100.00;99465.66;5032943;28;20045;-77
2023/03/27 04:19:04;;;;;;;40.65;20.08;;;;;;;8.51;100.00;99458.84;5032730;28;20057;-77
2023/03/27 04:21:36;;;;;;;40.90;20.70;;;;;;;8.44;100.00;99448.28;5049257;28;20054;-77
2023/03/27 04:24:07;;;;;;;46.65;21.48;;;;;;;8.71;100.00;99442.22;5066084;28;20052;-91
2023/03/27 04:26:45;;;;;;;49.92;21.23;;;;;;;9.60;100.00;99433.41;5031428;28;20404;-91
2023/03/27 04:29:16;;;;;;;52.88;22.88;;;;;;;10.44;100.00;99449.81;5016815;28;20049;-91
2023/03/27 04:31:59;;;;;;;45.45;23.15;;;;;;;10.82;100.00;99456.09;5031269;28;20496;-90
2023/03/27 04:34:40;;;;;;;40.55;20.25;;;;;;;10.87;100.00;99458.72;5040579;28;20068;-92
2023/03/27 04:37:08;;;;;;;35.42;17.08;;;;;;;10.90;100.00;99449.88;5033796;28;20052;-90
2023/03/27 04:39:42;;;;;;;30.83;15.52;;;;;;;11.31;97.69;99469.19;5035817;28;20038;-90
2023/03/27 04:42:11;;;;;;;30.92;15.27;;;;;;;11.47;96.40;99462.19;5032755;28;20420;-91
2023/03/27 04:44:40;;;;;;;27.38;13.73;;;;;;;11.75;94.25;99472.16;4999321;28;20045;-91
2023/03/27 04:47:08;;;;;;;26.98;13.57;;;;;;;11.99;92.60;99471.81;5009932;28;20522;-90
2023/03/27 04:49:41;;;;;;;24.38;12.25;;;;;;;12.12;91.77;99474.78;5016052;28;20048;-91
2023/03/27 04:52:19;;;;;;;25.90;13.05;;;;;;;12.07;91.11;99471.03;5029204;28;20044;-91
2023/03/27 04:54:47;;;;;;;23.33;12.25;;;;;;;12.05;91.33;99477.97;5019661;28;20052;-89
2023/03/27 04:57:17;;;;;;;23.02;13.05;;;;;;;12.14;91.02;99486.22;5017187;28;20416;-91
2023/03/27 04:59:49;;;;;;;30.83;12.88;;;;;;;12.12;89.88;99481.06;5015931;28;20053;-90
2023/03/27 05:02:56;;;;;;;24.65;12.65;;;;;;;12.17;89.99;99478.16;4992359;28;20050;-90
2023/03/27 05:05:35;;;;;;;25.48;12.35;;;;;;;12.13;90.05;99473.66;4982744;28;20157;-93
2023/03/27 05:08:05;;;;;;;23.67;13.23;;;;;;;12.07;89.95;99476.53;5013072;28;20076;-89
2023/03/27 05:10:33;;;;;;;23.25;13.75;;;;;;;12.11;89.75;99473.16;5015665;28;20053;-90
2023/03/27 05:13:01;;;;;;;26.13;13.55;;;;;;;12.23;89.05;99481.59;5015339;28;20045;-91
2023/03/27 05:15:31;;;;;;;26.05;13.05;;;;;;;12.22;88.96;99485.47;5015634;28;20057;-93
2023/03/27 05:18:01;;;;;;;23.25;12.07;;;;;;;12.36;88.42;99491.63;5015551;28;20057;-93
2023/03/27 05:20:31;;;;;;;26.20;12.10;;;;;;;12.33;88.02;99497.72;5000173;28;20400;-93
2023/03/27 05:23:05;;;;;;;23.77;12.85;;;;;;;11.85;90.76;99501.22;5015448;28;20048;-81
2023/03/27 05:25:33;;;;;;;23.05;12.98;;;;;;;11.36;94.19;99501.91;5048090;28;20053;-81
2023/03/27 05:28:04;;;;;;;25.85;12.48;;;;;;;11.39;94.55;99504.84;5048097;28;20056;-81
2023/03/27 05:30:34;;;;;;;23.33;11.88;;;;;;;11.06;96.23;99515.22;5064706;28;20511;-75
2023/03/27 05:33:15;;;;;;;24.15;12.27;;;;;;;11.15;95.46;99525.13;5043036;28;20034;-72
2023/03/27 05:35:47;;;;;;;24.73;12.13;;;;;;;11.25;95.31;99531.50;5031323;28;20049;-73
2023/03/27 05:38:15;;;;;;;25.15;12.88;;;;;;;11.02;96.37;99534.19;5047752;28;20427;-73
2023/03/27 05:41:03;;;;;;;21.70;11.88;;;;;;;11.20;95.74;99518.72;5032715;28;20377;-72
2023/03/27 05:43:36;;;;;;;25.05;12.60;;;;;;;11.06;95.95;99515.22;5032904;28;20048;-81
2023/03/27 05:46:05;;;;;;;23.65;12.52;;;;;;;10.62;98.78;99510.16;5036400;28;20046;-80
2023/03/27 05:48:34;;;;;;;23.80;12.68;;;;;;;10.06;100.00;99516.44;5025048;28;20591;-80
2023/03/27 05:51:05;;;;;;;24.08;13.10;;;;;;;9.93;100.00;99523.50;5030015;28;20046;-79
2023/03/27 05:53:35;;;;;;;26.75;13.50;;;;;;;9.72;100.00;99530.47;5034674;28;20488;-80
2023/03/27 05:56:21;;;;;;;24.95;13.45;;;;;;;9.34;100.00;99515.75;5011264;28;20042;-80
2023/03/27 05:58:55;;;;;;;25.45;12.63;;;;;;;9.39;100.00;99534.00;5070265;28;20047;-79
2023/03/27 06:01:25;;;;;;;26.30;14.05;;;;;;;9.41;100.00;99539.97;5058110;28;20049;-79
2023/03/27 06:03:56;;;;;;;24.85;14.18;;;;;;;9.36;100.00;99542.78;5027643;28;20041;-80
2023/03/27 06:06:31;;;;;;;28.02;15.00;;;;;;;9.10;100.00;99540.44;5010595;28;20049;-78
2023/03/27 06:09:00;;;;;;;29.52;14.20;;;;;;;9.21;100.00;99546.56;5011760;28;20042;-80
2023/03/27 06:11:29;;;;;;;28.77;16.10;;;;;;;8.97;100.00;99552.91;5041359;28;20062;-79
2023/03/27 06:13:58;;;;;;;31.25;15.85;;;;;;;8.95;100.00;99549.66;5043384;28;20389;-79
2023/03/27 06:16:40;;;;;;;27.73;15.43;;;;;;;9.10;100.00;99535.78;5027051;28;20053;-79
2023/03/27 06:19:27;;;;;;;25.33;14.70;;;;;;;9.04;100.00;99558.00;5037730;28;20045;-80
2023/03/27 06:21:55;;;;;;;27.50;15.32;;;;;;;9.12;100.00;99560.06;5051287;28;20052;-80
2023/03/27 06:24:23;;;;;;;27.48;15.45;;;;;;;8.96;100.00;99564.94;5051339;28;20377;-80
2023/03/27 06:26:51;;;;;;;24.17;14.57;;;;;;;8.83;100.00;99556.38;5065412;28;20060;-79
2023/03/27 06:29:20;;;;;;;27.38;14.63;;;;;;;9.05;100.00;99559.63;5030192;28;20045;-79
2023/03/27 06:31:51;;;;;;;30.63;15.85;;;;;;;9.03;100.00;99550.94;5030139;28;20049;-79
2023/03/27 06:34:26;;;;;;;27.23;14.40;;;;;;;9.17;100.00;99559.16;5030206;28;20515;-80
2023/03/27 06:37:26;;;;;;;25.60;15.15;;;;;;;9.14;100.00;99566.84;4998517;28;20054;-79
2023/03/27 06:39:56;;;;;;;26.20;14.80;;;;;;;9.43;100.00;99558.78;5026636;28;20057;-79
2023/03/27 06:42:25;;;;;;;24.98;14.13;;;;;;;9.41;100.00;99568.09;5043351;28;20057;-79
2023/03/27 06:45:21;;;;;;;25.92;13.85;;;;;;;9.64;100.00;99571.00;5010413;28;20046;-79
2023/03/27 06:48:11;;;;;;;23.70;13.48;;;;;;;9.68;100.00;99565.78;4990975;28;20387;-79
2023/03/27 06:50:51;;;;;;;22.80;13.70;;;;;;;9.68;100.00;99574.75;5026736;28;20477;-79
2023/03/27 06:53:21;;;;;;;22.63;13.95;;;;;;;9.95;100.00;99578.69;5026717;28;20478;-79
2023/03/27 06:55:53;;;;;;;20.73;12.45;;;;;;;9.81;100.00;99591.50;5011491;28;20042;-79
2023/03/27 06:58:23;;;;;;;23.08;13.25;;;;;;;9.94;100.00;99596.19;5030497;28;20053;-79
2023/03/27 07:00:52;;;;;;;19.40;13.23;;;;;;;9.72;100.00;99587.84;5013971;28;20396;-79
2023/03/27 07:03:21;;;;;;;18.55;12.18;;;;;;;10.09;100.00;99591.56;5015334;28;20042;-79
2023/03/27 07:05:52;;;;;;;19.00;12.68;;;;;;;9.74;100.00;99593.81;5015238;28;20041;-79
2023/03/27 07:08:21;;;;;;;21.85;12.25;;;;;;;9.85;100.00;99581.59;5013668;28;20045;-79
2023/03/27 07:10:56;;;;;;;21.33;12.80;;;;;;;9.75;100.00;99593.50;5032052;28;20057;-78
2023/03/27 07:13:45;;;;;;;18.23;11.88;;;;;;;9.99;100.00;99610.88;5034319;28;20061;-79
2023/03/27 07:16:21;;;;;;;19.13;11.77;;;;;;;9.99;100.00;99592.56;5047704;28;20054;-80
2023/03/27 07:18:49;;;;;;;19.52;12.43;;;;;;;10.79;100.00;99596.31;5014895;28;20045;-79
2023/03/27 07:21:18;;;;;;;20.17;12.30;;;;;;;11.26;97.81;99594.19;5046335;28;20049;-79
2023/03/27 07:23:46;;;;;;;20.17;11.52;;;;;;;11.46;98.17;99608.53;5046380;28;20046;-79
2023/03/27 07:26:19;;;;;;;18.52;11.15;;;;;;;11.37;97.33;99618.59;5015856;28;20053;-79
2023/03/27 07:28:53;;;;;;;17.05;10.23;;;;;;;11.20;98.52;99611.81;5046448;28;20053;-79
2023/03/27 07:31:22;;;;;;;15.13;10.15;;;;;;;11.06;98.61;99606.41;5029777;28;20050;-80
2023/03/27 07:33:53;;;;;;;17.15;10.43;;;;;;;11.54;97.11;99601.50;5014574;28;20053;-80
2023/03/27 07:36:30;;;;;;;15.13;10.50;;;;;;;11.73;94.94;99608.72;5044681;28;20049;-80
2023/03/27 07:39:04;;;;;;;;;;;;;;;11.89;94.08;99601.75;5046648;28;20054;-80
2023/03/27 07:41:33;;;;;;;15.48;9.90;;;;;;;11.42;95.79;99593.81;5046198;28;20288;-79
2023/03/27 07:44:20;;;;;;;16.10;9.63;;;;;;;11.75;96.58;99606.47;5029794;28;20738;-79
2023/03/27 07:47:00;;;;;;;15.98;9.98;;;;;;;12.36;94.64;99601.38;5012973;28;20061;-80
2023/03/27 07:49:29;;;;;;;15.82;9.93;;;;;;;12.76;92.28;99605.22;5029512;28;20053;-80
2023/03/27 07:52:11;;;;;;;16.00;9.68;;;;;;;13.03;91.34;99601.41;5029435;28;20045;-80
2023/03/27 07:54:51;;;;;;;13.82;9.35;;;;;;;13.21;92.40;99611.59;5045899;28;20042;-79
2023/03/27 07:57:22;;;;;;;11.93;9.20;;;;;;;13.41;91.33;99615.66;5013980;28;20449;-80
2023/03/27 07:59:51;;;;;;;14.77;9.30;;;;;;;13.44;91.67;99620.50;5028522;28;20038;-81
2023/03/27 08:02:29;;;;;;;13.65;8.65;;;;;;;13.76;88.70;99620.34;5035574;28;20053;-82
2023/03/27 08:04:57;;;;;;;12.02;8.20;;;;;;;13.59;87.51;99621.19;5022861;28;20042;-79
2023/03/27 08:07:25;;;;;;;13.82;8.93;;;;;;;14.17;88.57;99623.72;5048273;28;20057;-78
2023/03/27 08:09:57;;;;;;;9.93;8.02;;;;;;;14.04;87.50;99614.50;5032155;28;20042;-79
2023/03/27 08:12:25;;;;;;;11.80;7.80;;;;;;;13.88;89.26;99623.25;5048432;28;20041;-79
2023/03/27 08:15:01;;;;;;;11.02;7.72;;;;;;;14.72;85.67;99615.72;5031671;28;20973;-78
2023/03/27 08:17:32;;;;;;;13.05;7.60;;;;;;;14.59;83.07;99620.31;5031078;28;20053;-81
2023/03/27 08:20:07;;;;;;;10.70;7.00;;;;;;;14.45;80.80;99615.84;5032429;28;20057;-79
2023/03/27 08:22:44;;;;;;;;;;;;;;;14.96;79.37;99620.63;5032994;28;20468;-80
2023/03/27 08:25:41;;;;;;;10.57;6.82;;;;;;;15.45;75.02;99617.38;5033084;28;19921;-79
2023/03/27 08:28:10;;;;;;;10.55;5.90;;;;;;;15.54;76.13;99628.34;5033519;28;20053;-79
2023/03/27 08:30:40;;;;;;;7.95;6.22;;;;;;;15.53;77.44;99621.22;5032386;28;20045;-79
2023/03/27 08:33:09;;;;;;;8.77;5.40;;;;;;;16.08;75.29;99626.72;5048723;28;20053;-80
2023/03/27 08:35:37;;;;;;;8.73;5.00;;;;;;;16.80;73.33;99627.50;5032023;28;20053;-80
2023/03/27 08:38:05;;;;;;;9.45;5.47;;;;;;;17.05;69.45;99627.50;5048831;28;20053;-80
2023/03/27 08:41:05;;;;;;;4.15;3.60;;;;;;;16.81;65.63;99639.38;5033629;28;20373;-79
2023/03/27 08:43:40;;;;;;;;;;;;;;;16.93;65.53;99642.13;5049939;28;20056;-80
2023/03/27 08:46:27;;;;;;;3.88;3.03;;;;;;;17.01;62.39;99646.72;5031729;28;19944;-80
2023/03/27 08:49:17;;;;;;;4.75;2.75;;;;;;;16.76;63.35;99643.16;5031849;28;20060;-79
2023/03/27 08:52:14;;;;;;;2.63;2.20;;;;;;;16.04;60.72;99642.34;5033064;28;20052;-79
2023/03/27 08:54:52;;;;;;;5.07;2.35;;;;;;;16.78;60.65;99638.09;5031415;28;20045;-80
2023/03/27 08:57:31;;;;;;;3.15;1.80;;;;;;;17.33;56.89;99662.72;5031748;28;20044;-79
2023/03/27 09:00:18;;;;;;;3.45;2.28;;;;;;;16.99;56.22;99660.09;5016384;28;20056;-80
2023/03/27 09:03:26;;;;;;;3.70;2.10;;;;;;;16.68;54.03;99667.00;5029620;28;20492;-78
2023/03/27 09:06:21;;;;;;;1.70;1.60;;;;;;;16.82;53.63;99654.78;5027572;28;20050;-79
2023/03/27 09:09:05;;;;;;;2.72;1.80;;;;;;;17.32;53.55;99667.44;5028373;28;20527;-80
2023/03/27 09:12:13;;;;;;;1.80;1.40;;;;;;;17.17;50.53;99665.41;5020071;28;20046;-79
2023/03/27 09:15:08;;;;;;;2.13;1.45;;;;;;;17.32;49.52;99678.50;5042247;28;20649;-80
2023/03/27 09:17:43;;;;;;;2.38;1.55;;;;;;;17.84;49.77;99669.75;5020863;28;20460;-80
2023/03/27 09:20:27;;;;;;;2.20;1.63;;;;;;;17.82;51.14;99669.28;5026846;28;20042;-80
2023/03/27 09:23:17;;;;;;;1.95;1.05;;;;;;;17.36;47.42;99678.63;5037888;28;20061;-79
2023/03/27 09:26:16;;;;;;;2.25;1.52;;;;;;;17.19;51.77;99683.25;5023631;28;20053;-80
2023/03/27 09:29:20;;;;;;;1.25;1.15;;;;;;;17.43;49.48;99675.25;5018091;28;20046;-77
2023/03/27 09:31:57;;;;;;;1.88;1.20;;;;;;;16.98;48.82;99683.34;5076650;28;20046;-80
2023/03/27 09:34:31;;;;;;;2.45;1.63;;;;;;;17.23;49.00;99694.44;5063762;28;20400;-80
2023/03/27 09:37:00;;;;;;;1.25;1.08;;;;;;;17.44;49.29;99691.50;5024384;28;20053;-80
2023/03/27 09:39:33;;;;;;;1.77;1.40;;;;;;;17.83;49.54;99690.25;5030335;28;20503;-80
2023/03/27 09:42:25;;;;;;;4.50;1.67;;;;;;;17.80;48.96;99694.53;5027576;28;20397;-79
2023/03/27 09:45:00;;;;;;;2.30;1.67;;;;;;;17.88;46.75;99698.31;5057696;28;20045;-79
2023/03/27 09:47:48;;;;;;;1.42;1.17;;;;;;;17.93;45.43;99700.84;5037391;28;20417;-79
2023/03/27 09:50:23;;;;;;;;;;;;;;;17.84;46.82;99698.22;5030374;28;20049;-79
2023/03/27 09:53:17;;;;;;;1.77;1.50;;;;;;;18.21;47.57;99702.81;5047446;28;20372;-80
2023/03/27 09:55:57;;;;;;;2.13;1.52;;;;;;;17.89;47.40;99705.44;5035606;28;20056;-79
2023/03/27 09:58:39;;;;;;;2.42;1.40;;;;;;;17.86;46.83;99700.63;5070081;28;20491;-79
2023/03/27 10:01:12;;;;;;;1.30;1.20;;;;;;;17.55;46.47;99707.63;5030193;28;20045;-80
2023/03/27 10:03:53;;;;;;;3.13;1.13;;;;;;;17.86;45.55;99706.16;5029386;28;20049;-78
2023/03/27 10:06:43;;;;;;;1.35;0.98;;;;;;;18.49;43.77;99713.06;5063331;28;20076;-79
2023/03/27 10:09:28;;;;;;;1.17;0.90;;;;;;;18.53;41.86;99716.72;5004291;28;20046;-79
2023/03/27 10:12:07;;;;;;;5.57;1.08;;;;;;;18.79;41.64;99718.19;5028390;28;20046;-78
2023/03/27 10:14:47;;;;;;;1.08;0.75;;;;;;;19.20;40.70;99708.88;5020116;28;20061;-79
2023/03/27 10:17:38;;;;;;;0.73;0.63;;;;;;;19.24;38.61;99720.88;5050965;28;20041;-79
2023/03/27 10:20:17;;;;;;;1.05;0.85;;;;;;;19.56;38.67;99704.13;5029550;28;20060;-79
2023/03/27 10:22:58;;;;;;;1.50;1.08;;;;;;;19.02;42.19;99705.66;5046234;28;20045;-81
2023/03/27 10:25:33;;;;;;;1.02;0.75;;;;;;;18.69;41.37;99702.09;5047242;28;20041;-81
2023/03/27 10:28:21;;;;;;;0.70;0.70;;;;;;;18.51;42.18;99713.50;5046819;28;20408;-81
2023/03/27 10:31:28;;;;;;;0.75;0.75;;;;;;;18.43;40.64;99722.78;5035156;28;20415;-82
2023/03/27 10:34:32;;;;;;;0.75;0.60;;;;;;;18.34;40.18;99722.94;5054550;28;20045;-81
2023/03/27 10:37:39;;;;;;;1.00;0.90;;;;;;;18.47;41.97;99729.22;5033224;28;20060;-82
2023/03/27 10:40:43;;;;;;;1.98;1.10;;;;;;;18.46;41.42;99724.84;5033127;28;20053;-83
2023/03/27 10:43:35;;;;;;;1.70;1.05;;;;;;;18.53;39.18;99727.81;5045463;28;20065;-83
2023/03/27 10:46:08;;;;;;;1.25;1.00;;;;;;;18.65;40.18;99735.25;5053785;28;20484;-83
2023/03/27 10:49:08;;;;;;;1.10;0.77;;;;;;;18.50;40.35;99723.00;5055754;28;20037;-83
2023/03/27 10:51:44;;;;;;;1.20;0.90;;;;;;;18.49;40.36;99726.13;5055838;28;20475;-83
2023/03/27 10:54:29;;;;;;;1.20;0.93;;;;;;;18.48;40.32;99725.28;5051889;28;20496;-83
2023/03/27 10:57:16;;;;;;;1.13;0.98;;;;;;;18.51;40.71;99723.78;5046866;28;20046;-83
2023/03/27 11:00:09;;;;;;;0.70;0.70;;;;;;;18.77;38.88;99720.50;5049428;28;20045;-82
2023/03/27 11:02:53;;;;;;;1.38;0.80;;;;;;;18.86;39.43;99730.63;5042627;28;20435;-83
2023/03/27 11:05:26;;;;;;;0.82;0.73;;;;;;;18.86;36.76;99719.53;5053851;28;20067;-83
2023/03/27 11:08:30;;;;;;;1.40;0.90;;;;;;;19.16;36.55;99719.88;5048211;28;20251;-84
2023/03/27 11:11:08;;;;;;;0.65;0.60;;;;;;;19.39;32.85;99721.19;5051986;28;20049;-83
2023/03/27 11:13:46;;;;;;;0.98;0.60;;;;;;;19.36;34.10;99717.19;5048192;28;20049;-83
2023/03/27 11:16:25;;;;;;;0.80;0.70;;;;;;;19.61;32.09;99728.03;5053106;28;20484;-83
2023/03/27 11:19:22;;;;;;;0.60;0.50;;;;;;;19.46;32.32;99726.91;5053365;28;20037;-83
2023/03/27 11:22:31;;;;;;;2.03;0.60;;;;;;;19.66;35.17;99726.94;5043929;28;20676;-83
2023/03/27 11:25:19;;;;;;;0.85;0.80;;;;;;;19.54;34.50;99720.34;5052426;28;20048;-83
2023/03/27 11:28:07;;;;;;;0.73;0.63;;;;;;;19.72;34.81;99711.63;5051020;28;20041;-84
2023/03/27 11:30:47;;;;;;;0.50;0.40;;;;;;;19.91;30.08;99715.56;5046016;28;20044;-84
2023/03/27 11:33:33;;;;;;;0.77;0.50;;;;;;;19.98;29.01;99716.56;5051968;28;20060;-84
2023/03/27 11:36:15;;;;;;;0.35;0.20;;;;;;;19.91;30.92;99712.78;5051322;28;20416;-84
2023/03/27 11:39:05;;;;;;;0.50;0.20;;;;;;;19.93;29.11;99721.56;5067389;28;20385;-83
2023/03/27 11:41:34;;;;;;;0.20;0.20;;;;;;;19.87;29.25;99724.66;5034783;28;20041;-84
2023/03/27 11:44:03;;;;;;;1.85;0.40;;;;;;;20.16;28.91;99745.84;5053903;28;20510;-84
2023/03/27 11:47:15;;;;;;;0.20;0.20;;;;;;;20.03;21.42;99743.22;5053456;28;20511;-84
2023/03/27 11:50:14;;;;;;;0.28;0.20;;;;;;;20.27;25.02;99735.75;5052633;28;20055;-82
2023/03/27 11:53:16;;;;;;;0.60;0.10;;;;;;;20.27;21.78;99738.53;5049311;28;20037;-84
2023/03/27 11:56:24;;;;;;;0.10;0.03;;;;;;;20.32;20.95;99738.25;5007182;28;20064;-85
2023/03/27 11:59:11;;;;;;;0.10;0.08;;;;;;;20.46;22.08;99739.69;5015847;28;20045;-84
2023/03/27 12:02:14;;;;;;;1.85;0.13;;;;;;;20.44;21.83;99733.69;5032601;28;20388;-84
2023/03/27 12:04:47;;;;;;;0.10;0.10;;;;;;;20.45;22.14;99743.63;5029906;28;20072;-85
2023/03/27 12:08:17;;;;;;;0.00;0.00;;;;;;;20.43;23.16;99741.22;5047900;28;20511;-84
2023/03/27 12:10:52;;;;;;;0.40;0.30;;;;;;;20.42;22.54;99742.38;5002436;28;20084;-84
2023/03/27 12:13:57;;;;;;;0.13;0.13;;;;;;;19.79;20.69;99738.75;5019015;28;20041;-84
2023/03/27 12:17:15;;;;;;;0.20;0.10;;;;;;;19.96;24.71;99730.00;5077395;28;20033;-84
2023/03/27 12:20:42;;;;;;;0.22;0.22;;;;;;;19.76;23.13;99739.44;5042757;28;20057;-84